Time;durP1;ratioP1;P1;durP2;ratioP2;P2;SDS_P1;SDS_P2;PMS_P1;PMS_P2;Temp;Humidity;BMP_temperature;BMP_pressure;BME280_temperature;BME280_humidity;BME280_pressure;Samples;Min_cycle;Max_cycle;Signal;HPM_P1;HPM_P2
2021/10/27 00:01:45;;;;;;;;;;;12.20;97.40;;;;;;5050230;28;19921;-70
2021/10/27 00:04:11;;;;;;;;;;;12.20;97.40;;;;;;5051679;28;20283;-70
2021/10/27 00:06:37;;;;;;;;;;;12.10;97.60;;;;;;5054559;28;19913;-70
2021/10/27 00:09:03;;;;;;;;;;;12.10;97.40;;;;;;5056624;28;19962;-70
2021/10/27 00:11:30;;;;;;;;;;;12.10;97.40;;;;;;5054052;28;19932;-71
2021/10/27 00:13:55;;;;;;;;;;;12.10;97.40;;;;;;5037905;28;19916;-71
2021/10/27 00:16:20;;;;;;;;;;;12.10;97.40;;;;;;5052994;28;19928;-71
2021/10/27 00:18:46;;;;;;;;;;;12.10;97.40;;;;;;5039692;28;19917;-71
2021/10/27 00:21:11;;;;;;;;;;;12.10;97.40;;;;;;5036161;28;19916;-71
2021/10/27 00:23:37;;;;;;;;;;;12.10;97.50;;;;;;5059766;28;19924;-71
2021/10/27 00:26:02;;;;;;;;;;;12.10;97.40;;;;;;5059126;28;20036;-71
2021/10/27 00:28:28;;;;;;;;;;;12.10;97.40;;;;;;5059024;28;19913;-71
2021/10/27 00:30:53;;;;;;;;;;;12.10;97.40;;;;;;5040981;28;20394;-71
2021/10/27 00:33:19;;;;;;;;;;;12.10;97.40;;;;;;5058944;28;20400;-71
2021/10/27 00:35:45;;;;;;;;;;;12.10;97.40;;;;;;5038001;28;20342;-71
2021/10/27 00:38:10;;;;;;;;;;;12.20;97.40;;;;;;5058317;28;20015;-71
2021/10/27 00:40:35;;;;;;;;;;;12.20;97.30;;;;;;5057047;28;19917;-72
2021/10/27 00:43:01;;;;;;;;;;;12.20;97.30;;;;;;5041713;28;19935;-71
2021/10/27 00:45:26;;;;;;;;;;;12.20;97.30;;;;;;5059050;28;19986;-71
2021/10/27 00:47:52;;;;;;;;;;;12.20;97.30;;;;;;5042535;28;19917;-71
2021/10/27 00:50:17;;;;;;;;;;;12.20;97.30;;;;;;5059348;28;20462;-71
2021/10/27 00:52:43;;;;;;;;;;;12.20;97.30;;;;;;5040015;28;20332;-71
2021/10/27 00:55:09;;;;;;;;;;;12.30;97.30;;;;;;5042004;28;20007;-70
2021/10/27 00:57:36;;;;;;;;;;;12.30;97.20;;;;;;5059217;28;20384;-70
2021/10/27 01:00:03;;;;;;;;;;;12.30;97.20;;;;;;5039493;28;19909;-70
2021/10/27 01:02:28;;;;;;;;;;;12.40;97.20;;;;;;5057900;28;19913;-70
2021/10/27 01:04:54;;;;;;;;;;;12.40;97.20;;;;;;5040958;28;19962;-70
2021/10/27 01:07:19;;;;;;;;;;;12.30;97.20;;;;;;5024152;28;20285;-70
2021/10/27 01:09:45;;;;;;;;;;;12.40;97.20;;;;;;5057781;28;19963;-70
2021/10/27 01:12:10;;;;;;;;;;;12.40;97.20;;;;;;5058027;28;19913;-71
2021/10/27 01:14:38;;;;;;;;;;;12.40;97.20;;;;;;5040118;28;19965;-70
2021/10/27 01:17:05;;;;;;;;;;;12.50;97.20;;;;;;5057985;28;19925;-70
2021/10/27 01:19:51;;;;;;;;;;;12.50;97.20;;;;;;5058426;28;19963;-70
2021/10/27 01:22:17;;;;;;;;;;;12.40;97.10;;;;;;5038048;28;20257;-70
2021/10/27 01:24:43;;;;;;;;;;;12.40;97.10;;;;;;5059023;28;20041;-70
2021/10/27 01:27:09;;;;;;;;;;;12.40;97.10;;;;;;5038842;28;19912;-70
2021/10/27 01:29:35;;;;;;;;;;;12.50;97.20;;;;;;5057050;28;19924;-70
2021/10/27 01:32:00;;;;;;;;;;;12.50;97.20;;;;;;5036067;28;19951;-70
2021/10/27 01:34:26;;;;;;;;;;;12.40;97.20;;;;;;5057205;28;20473;-70
2021/10/27 01:36:53;;;;;;;;;;;12.40;97.20;;;;;;5024937;28;19921;-70
2021/10/27 01:39:18;;;;;;;;;;;12.50;97.20;;;;;;5025135;28;20008;-70
2021/10/27 01:41:44;;;;;;;;;;;12.50;97.20;;;;;;5055036;28;20354;-70
2021/10/27 01:44:09;;;;;;;;;;;12.50;97.20;;;;;;5037720;28;19912;-70
2021/10/27 01:46:35;;;;;;;;;;;12.50;97.20;;;;;;5037664;28;20012;-70
2021/10/27 01:49:02;;;;;;;;;;;12.50;97.20;;;;;;5056523;28;19913;-70
2021/10/27 01:51:27;;;;;;;;;;;12.50;97.20;;;;;;5056355;28;19939;-70
2021/10/27 01:53:53;;;;;;;;;;;12.50;97.20;;;;;;5039782;28;20283;-70
2021/10/27 01:56:19;;;;;;;;;;;12.50;97.20;;;;;;5023401;28;20148;-70
2021/10/27 01:58:44;;;;;;;;;;;12.50;97.30;;;;;;5056908;28;20294;-70
2021/10/27 02:01:10;;;;;;;;;;;12.50;97.30;;;;;;5055871;28;19913;-71
2021/10/27 02:03:35;;;;;;;;;;;12.50;97.30;;;;;;5057349;28;19947;-70
2021/10/27 02:06:01;;;;;;;;;;;12.50;97.30;;;;;;5054570;28;19913;-70
2021/10/27 02:08:26;;;;;;;;;;;12.50;97.30;;;;;;5038261;28;19947;-70
2021/10/27 02:10:51;;;;;;;;;;;12.50;97.30;;;;;;5055834;28;19994;-70
2021/10/27 02:13:17;;;;;;;;;;;12.60;97.30;;;;;;5055662;28;19913;-70
2021/10/27 02:15:42;;;;;;;;;;;12.50;97.40;;;;;;5055166;28;19923;-70
2021/10/27 02:18:08;;;;;;;;;;;12.60;97.40;;;;;;5055719;28;20055;-70
2021/10/27 02:20:33;;;;;;;;;;;12.60;97.40;;;;;;5023530;28;19916;-70
2021/10/27 02:22:59;;;;;;;;;;;12.60;97.40;;;;;;5038741;28;19923;-70
2021/10/27 02:25:24;;;;;;;;;;;12.60;97.40;;;;;;5056338;28;20443;-70
2021/10/27 02:27:50;;;;;;;;;;;12.60;97.40;;;;;;5037888;28;19935;-70
2021/10/27 02:30:15;;;;;;;;;;;12.60;97.50;;;;;;5039006;28;20445;-70
2021/10/27 02:32:41;;;;;;;;;;;12.60;97.50;;;;;;5039953;28;20291;-70
2021/10/27 02:35:06;;;;;;;;;;;12.60;97.50;;;;;;5056459;28;20317;-69
2021/10/27 02:37:32;;;;;;;;;;;12.60;97.40;;;;;;5036741;28;19935;-70
2021/10/27 02:39:57;;;;;;;;;;;12.60;97.50;;;;;;5055919;28;20468;-71
2021/10/27 02:42:23;;;;;;;;;;;12.60;97.50;;;;;;5056164;28;19912;-69
2021/10/27 02:44:48;;;;;;;;;;;12.60;97.50;;;;;;5055846;28;20410;-69
2021/10/27 02:47:14;;;;;;;;;;;12.60;97.50;;;;;;5036453;28;20306;-70
2021/10/27 02:49:39;;;;;;;;;;;12.60;97.50;;;;;;5056888;28;20423;-70
2021/10/27 02:52:05;;;;;;;;;;;12.60;97.60;;;;;;5057212;28;20345;-70
2021/10/27 02:54:30;;;;;;;;;;;12.60;97.60;;;;;;5056186;28;19935;-70
2021/10/27 02:56:55;;;;;;;;;;;12.60;97.60;;;;;;5057305;28;19917;-70
2021/10/27 02:59:21;;;;;;;;;;;12.50;97.70;;;;;;5056175;28;20398;-70
2021/10/27 03:01:46;;;;;;;;;;;12.60;97.60;;;;;;5052845;28;20046;-70
2021/10/27 03:04:12;;;;;;;;;;;12.50;97.60;;;;;;5052956;28;20398;-70
2021/10/27 03:06:39;;;;;;;;;;;12.50;97.60;;;;;;5055030;28;19957;-71
2021/10/27 03:09:05;;;;;;;;;;;12.50;97.60;;;;;;5054515;28;19920;-70
2021/10/27 03:11:30;;;;;;;;;;;12.50;97.70;;;;;;5056686;28;19912;-70
2021/10/27 03:13:56;;;;;;;;;;;12.50;97.70;;;;;;5054750;28;19919;-70
2021/10/27 03:16:21;;;;;;;;;;;12.50;97.70;;;;;;5054865;28;19920;-70
2021/10/27 03:18:47;;;;;;;;;;;12.50;97.80;;;;;;5054679;28;19913;-71
2021/10/27 03:21:12;;;;;;;;;;;12.50;97.90;;;;;;5037999;28;20256;-70
2021/10/27 03:23:38;;;;;;;;;;;12.50;97.90;;;;;;5036973;28;19938;-70
2021/10/27 03:26:03;;;;;;;;;;;12.50;98.00;;;;;;5055359;28;20551;-70
2021/10/27 03:28:28;;;;;;;;;;;12.40;97.90;;;;;;5024115;28;20319;-71
2021/10/27 03:30:55;;;;;;;;;;;12.50;98.00;;;;;;5039190;28;19989;-71
2021/10/27 03:33:22;;;;;;;;;;;12.50;98.00;;;;;;5053491;28;19992;-71
2021/10/27 03:35:47;;;;;;;;;;;12.40;98.00;;;;;;5054471;28;19924;-70
2021/10/27 03:38:13;;;;;;;;;;;12.40;98.10;;;;;;5057006;28;19927;-70
2021/10/27 03:40:39;;;;;;;;;;;12.40;98.10;;;;;;5054913;28;19917;-71
2021/10/27 03:43:04;;;;;;;;;;;12.50;98.20;;;;;;5056423;28;19968;-71
2021/10/27 03:45:30;;;;;;;;;;;12.40;98.10;;;;;;5057541;28;19962;-71
2021/10/27 03:47:56;;;;;;;;;;;12.40;98.20;;;;;;5055870;28;19995;-71
2021/10/27 03:50:21;;;;;;;;;;;12.40;98.10;;;;;;5022403;28;19916;-71
2021/10/27 03:52:46;;;;;;;;;;;12.50;98.30;;;;;;5055791;28;19995;-71
2021/10/27 03:55:12;;;;;;;;;;;12.40;98.20;;;;;;5056563;28;20377;-71
2021/10/27 03:57:37;;;;;;;;;;;12.40;98.30;;;;;;5056332;28;19939;-71
2021/10/27 04:00:05;;;;;;;;;;;12.30;98.20;;;;;;5060294;28;19935;-71
2021/10/27 04:02:31;;;;;;;;;;;12.30;98.30;;;;;;5057187;28;19947;-71
2021/10/27 04:04:56;;;;;;;;;;;12.40;98.20;;;;;;5058339;28;20523;-71
2021/10/27 04:07:22;;;;;;;;;;;12.40;98.30;;;;;;5057201;28;19921;-71
2021/10/27 04:09:47;;;;;;;;;;;12.40;98.20;;;;;;5057883;28;20482;-71
2021/10/27 04:12:13;;;;;;;;;;;12.40;98.20;;;;;;5057043;28;19920;-71
2021/10/27 04:14:38;;;;;;;;;;;12.30;98.20;;;;;;5057939;28;20295;-71
2021/10/27 04:17:03;;;;;;;;;;;12.30;98.30;;;;;;5054877;28;20018;-71
2021/10/27 04:19:29;;;;;;;;;;;12.30;98.20;;;;;;5035561;28;20333;-71
2021/10/27 04:21:54;;;;;;;;;;;12.40;98.30;;;;;;5054346;28;19960;-71
2021/10/27 04:24:20;;;;;;;;;;;12.30;98.30;;;;;;5040988;28;19935;-71
2021/10/27 04:26:45;;;;;;;;;;;12.40;98.40;;;;;;5058498;28;20437;-71
2021/10/27 04:29:11;;;;;;;;;;;12.40;98.30;;;;;;5038915;28;19955;-72
2021/10/27 04:31:37;;;;;;;;;;;12.40;98.40;;;;;;5055247;28;19917;-71
2021/10/27 04:34:02;;;;;;;;;;;12.40;98.40;;;;;;5057402;28;19912;-71
2021/10/27 04:36:29;;;;;;;;;;;12.30;98.40;;;;;;5058751;28;19967;-72
2021/10/27 04:38:54;;;;;;;;;;;12.40;98.40;;;;;;5058292;28;19926;-70
2021/10/27 04:41:20;;;;;;;;;;;12.40;98.40;;;;;;5059446;28;20003;-71
2021/10/27 04:43:45;;;;;;;;;;;12.40;98.40;;;;;;5060242;28;19988;-72
2021/10/27 04:46:11;;;;;;;;;;;12.30;98.40;;;;;;5059747;28;19940;-72
2021/10/27 04:48:36;;;;;;;;;;;12.30;98.40;;;;;;5057956;28;20051;-72
2021/10/27 04:51:02;;;;;;;;;;;12.30;98.30;;;;;;5059572;28;19913;-69
2021/10/27 04:53:28;;;;;;;;;;;12.40;98.40;;;;;;5052228;28;19920;-72
2021/10/27 04:55:53;;;;;;;;;;;12.30;98.40;;;;;;5059751;28;19923;-73
2021/10/27 04:58:20;;;;;;;;;;;12.40;98.40;;;;;;5041379;28;19913;-72
2021/10/27 05:00:45;;;;;;;;;;;12.40;98.40;;;;;;5059535;28;20459;-71
2021/10/27 05:03:11;;;;;;;;;;;12.30;98.40;;;;;;5058480;28;19913;-72
2021/10/27 05:05:45;;;;;;;;;;;12.30;98.40;;;;;;5040391;28;20629;-72
2021/10/27 05:08:10;;;;;;;;;;;12.30;98.50;;;;;;5058044;28;20370;-71
2021/10/27 05:10:35;;;;;;;;;;;12.30;98.40;;;;;;5057105;28;19922;-68
2021/10/27 05:13:01;;;;;;;;;;;12.30;98.40;;;;;;5056300;28;20003;-71
2021/10/27 05:15:26;;;;;;;;;;;12.30;98.50;;;;;;5055707;28;19916;-75
2021/10/27 05:17:52;;;;;;;;;;;12.30;98.40;;;;;;5061193;28;20252;-75
2021/10/27 05:20:17;;;;;;;;;;;12.30;98.40;;;;;;5061837;28;19912;-75
2021/10/27 05:22:43;;;;;;;;;;;12.30;98.40;;;;;;5043441;28;19920;-75
2021/10/27 05:25:08;;;;;;;;;;;12.30;98.40;;;;;;5058743;28;20039;-75
2021/10/27 05:27:35;;;;;;;;;;;12.40;98.40;;;;;;5056722;28;20277;-76
2021/10/27 05:30:02;;;;;;;;;;;12.30;98.40;;;;;;5056088;28;19913;-77
2021/10/27 05:32:27;;;;;;;;;;;12.30;98.30;;;;;;5057268;28;20356;-76
2021/10/27 05:34:52;;;;;;;;;;;12.40;98.40;;;;;;5058112;28;19920;-76
2021/10/27 05:37:18;;;;;;;;;;;12.40;98.40;;;;;;5039284;28;19958;-77
2021/10/27 05:39:43;;;;;;;;;;;12.40;98.30;;;;;;5058713;28;19912;-76
2021/10/27 05:42:13;;;;;;;;;;;12.30;98.40;;;;;;5058029;28;19919;-75
2021/10/27 05:44:38;;;;;;;;;;;12.40;98.40;;;;;;5057613;28;19912;-76
2021/10/27 05:47:04;;;;;;;;;;;12.40;98.40;;;;;;5057790;28;19951;-76
2021/10/27 05:51:59;;;;;;;;;;;12.40;98.40;;;;;;5058398;28;19908;-76
2021/10/27 05:57:08;;;;;;;;;;;12.40;98.40;;;;;;5051737;28;20024;-80
2021/10/27 05:59:34;;;;;;;;;;;12.40;98.40;;;;;;5053783;28;20028;-80
2021/10/27 06:02:00;;;;;;;;;;;12.40;98.40;;;;;;5052898;28;19912;-80
2021/10/27 06:04:26;;;;;;;;;;;12.40;98.40;;;;;;5057508;28;19912;-80
2021/10/27 06:06:51;;;;;;;;;;;12.40;98.40;;;;;;5037817;28;20008;-74
2021/10/27 06:09:17;;;;;;;;;;;12.40;98.40;;;;;;5052049;28;19921;-79
2021/10/27 06:11:43;;;;;;;;;;;12.40;98.40;;;;;;5051948;28;19962;-76
2021/10/27 06:14:09;;;;;;;;;;;12.50;98.50;;;;;;5055556;28;20368;-76
2021/10/27 06:16:34;;;;;;;;;;;12.50;98.50;;;;;;5024638;28;19971;-76
2021/10/27 06:19:00;;;;;;;;;;;12.50;98.50;;;;;;5037002;28;19992;-74
2021/10/27 06:21:26;;;;;;;;;;;12.50;98.50;;;;;;5056912;28;19921;-75
2021/10/27 06:23:52;;;;;;;;;;;12.50;98.60;;;;;;5056875;28;19916;-75
2021/10/27 06:26:18;;;;;;;;;;;12.50;98.50;;;;;;5056175;28;19913;-77
2021/10/27 06:28:56;;;;;;;;;;;12.50;98.50;;;;;;5056570;28;19956;-77
2021/10/27 06:31:30;;;;;;;;;;;12.50;98.60;;;;;;5056532;28;19913;-75
2021/10/27 06:34:03;;;;;;;;;;;12.50;98.50;;;;;;5054390;28;19917;-75
2021/10/27 06:36:57;;;;;;;;;;;12.60;98.60;;;;;;5055338;28;19921;-75
2021/10/27 06:45:55;;;;;;;;;;;12.60;98.60;;;;;;5039323;28;19921;-74
2021/10/27 06:47:42;;;;;;;;;;;12.60;98.70;;;;;;5057956;28;19999;-76
2021/10/27 06:50:08;;;;;;;;;;;12.60;98.70;;;;;;5053833;28;20011;-76
2021/10/27 06:52:34;;;;;;;;;;;12.70;98.80;;;;;;5055484;28;20379;-76
2021/10/27 06:54:59;;;;;;;;;;;12.70;98.80;;;;;;5056382;28;20260;-76
2021/10/27 06:57:26;;;;;;;;;;;12.70;98.70;;;;;;5053914;28;20007;-77
2021/10/27 06:59:57;;;;;;;;;;;12.70;98.80;;;;;;5056055;28;20422;-76
2021/10/27 07:02:36;;;;;;;;;;;12.70;98.80;;;;;;5053593;28;20446;-76
2021/10/27 07:15:29;;;;;;;;;;;12.80;98.90;;;;;;5053370;28;19982;-78
2021/10/27 07:17:55;;;;;;;;;;;12.80;98.90;;;;;;5051422;28;20737;-77
2021/10/27 07:20:23;;;;;;;;;;;12.80;98.90;;;;;;5055768;28;20275;-78
2021/10/27 07:22:49;;;;;;;;;;;12.80;99.00;;;;;;5053479;28;19928;-77
2021/10/27 07:25:16;;;;;;;;;;;12.80;99.10;;;;;;5053482;28;19917;-76
2021/10/27 07:27:42;;;;;;;;;;;12.80;99.10;;;;;;5055782;28;19986;-77
2021/10/27 07:30:07;;;;;;;;;;;12.80;99.20;;;;;;5055788;28;20390;-78
2021/10/27 07:32:33;;;;;;;;;;;12.80;99.10;;;;;;5059203;28;19916;-77
2021/10/27 07:43:01;;;;;;;;;;;12.90;99.10;;;;;;5059245;28;19913;-75
2021/10/27 07:45:27;;;;;;;;;;;12.90;99.10;;;;;;5057500;28;19948;-77
2021/10/27 07:47:53;;;;;;;;;;;12.90;99.10;;;;;;5058741;28;19964;-77
2021/10/27 07:50:19;;;;;;;;;;;13.00;99.10;;;;;;5059055;28;19917;-77
2021/10/27 07:52:44;;;;;;;;;;;13.00;99.10;;;;;;5057030;28;19921;-76
2021/10/27 07:55:11;;;;;;;;;;;13.00;99.10;;;;;;5058480;28;20310;-75
2021/10/27 07:57:36;;;;;;;;;;;13.00;99.10;;;;;;5055714;28;19984;-79
2021/10/27 08:00:04;;;;;;;;;;;13.10;99.10;;;;;;5040909;28;19925;-78
2021/10/27 08:02:29;;;;;;;;;;;13.10;99.00;;;;;;5055074;28;19968;-78
2021/10/27 08:04:56;;;;;;;;;;;13.10;99.00;;;;;;5058890;28;20458;-77
2021/10/27 08:07:21;;;;;;;;;;;13.10;99.10;;;;;;5059195;28;19916;-78
2021/10/27 08:09:47;;;;;;;;;;;13.10;99.00;;;;;;5027377;28;20370;-78
2021/10/27 08:12:12;;;;;;;;;;;13.10;99.00;;;;;;5060471;28;19913;-77
2021/10/27 08:14:38;;;;;;;;;;;13.10;99.00;;;;;;5058113;28;20298;-75
2021/10/27 08:17:03;;;;;;;;;;;13.20;99.00;;;;;;5058268;28;19916;-76
2021/10/27 08:19:29;;;;;;;;;;;13.20;99.00;;;;;;5059644;28;19963;-76
2021/10/27 08:21:58;;;;;;;;;;;13.20;99.00;;;;;;5056836;28;19924;-74
2021/10/27 08:24:25;;;;;;;;;;;13.20;99.00;;;;;;5058718;28;20399;-77
2021/10/27 08:26:54;;;;;;;;;;;13.20;98.90;;;;;;5058539;28;19916;-77
2021/10/27 08:29:25;;;;;;;;;;;13.30;98.90;;;;;;5057074;28;19923;-77
2021/10/27 08:31:56;;;;;;;;;;;13.30;98.90;;;;;;5059452;28;19923;-78
2021/10/27 08:34:34;;;;;;;;;;;13.30;98.90;;;;;;5058944;28;19920;-77
2021/10/27 08:36:59;;;;;;;;;;;13.40;98.90;;;;;;5040951;28;20323;-76
2021/10/27 08:39:25;;;;;;;;;;;13.40;98.80;;;;;;5058792;28;20015;-77
2021/10/27 08:41:50;;;;;;;;;;;13.50;98.80;;;;;;5057873;28;19963;-76
2021/10/27 08:44:16;;;;;;;;;;;13.50;98.70;;;;;;5058170;28;20379;-77
2021/10/27 08:46:43;;;;;;;;;;;13.50;98.70;;;;;;5057421;28;19913;-75
2021/10/27 08:49:08;;;;;;;;;;;13.60;98.70;;;;;;5056042;28;19958;-73
2021/10/27 08:51:35;;;;;;;;;;;13.60;98.80;;;;;;5057205;28;19924;-74
2021/10/27 08:54:02;;;;;;;;;;;13.60;98.60;;;;;;5060342;28;19908;-75
2021/10/27 08:56:27;;;;;;;;;;;13.70;98.60;;;;;;5058573;28;20441;-75
2021/10/27 08:59:01;;;;;;;;;;;13.70;98.50;;;;;;5059218;28;19917;-74
2021/10/27 09:01:49;;;;;;;;;;;13.70;98.50;;;;;;5058237;28;20298;-74
2021/10/27 09:06:59;;;;;;;;;;;13.80;98.40;;;;;;5057202;28;19916;-75
2021/10/27 09:10:07;;;;;;;;;;;13.90;98.40;;;;;;5056759;28;20343;-77
2021/10/27 09:34:56;;;;;;;;;;;14.30;97.80;;;;;;5058020;28;20573;-76
2021/10/27 09:43:26;;;;;;;;;;;14.40;97.60;;;;;;5056861;28;19963;-75
2021/10/27 09:46:24;;;;;;;;;;;14.50;97.60;;;;;;5055303;28;19914;-76
2021/10/27 10:05:08;;;;;;;;;;;14.70;96.80;;;;;;5055270;28;20344;-72
2021/10/27 10:07:34;;;;;;;;;;;14.80;96.80;;;;;;5056671;28;19920;-73
2021/10/27 10:10:01;;;;;;;;;;;14.80;96.70;;;;;;5056533;28;19954;-73
2021/10/27 10:12:27;;;;;;;;;;;14.80;96.70;;;;;;5054703;28;20290;-72
2021/10/27 10:14:52;;;;;;;;;;;14.90;96.60;;;;;;5057145;28;20382;-74
2021/10/27 10:17:18;;;;;;;;;;;15.00;96.60;;;;;;5054696;28;20000;-74
2021/10/27 10:19:44;;;;;;;;;;;15.10;96.50;;;;;;5056602;28;19920;-76
2021/10/27 10:22:28;;;;;;;;;;;15.10;96.40;;;;;;5038300;28;20375;-74
2021/10/27 10:24:54;;;;;;;;;;;15.20;96.30;;;;;;5039606;28;20504;-75
2021/10/27 10:27:38;;;;;;;;;;;15.20;96.10;;;;;;5056792;28;19942;-74
2021/10/27 10:30:22;;;;;;;;;;;15.30;96.00;;;;;;5027115;28;20295;-73
2021/10/27 10:32:58;;;;;;;;;;;15.30;95.90;;;;;;5058737;28;19912;-76
2021/10/27 10:35:33;;;;;;;;;;;15.30;95.90;;;;;;5058492;28;19916;-78
2021/10/27 10:40:46;;;;;;;;;;;15.40;95.80;;;;;;5055660;28;19912;-76
2021/10/27 10:43:27;;;;;;;;;;;15.40;95.60;;;;;;5056058;28;19921;-76
2021/10/27 10:46:02;;;;;;;;;;;15.50;95.60;;;;;;5058109;28;19925;-75
2021/10/27 11:00:30;;;;;;;;;;;15.60;95.50;;;;;;5056236;28;19928;-79
2021/10/27 11:03:33;;;;;;;;;;;15.60;95.60;;;;;;5055293;28;19909;-79
2021/10/27 11:22:15;;;;;;;;;;;15.60;95.30;;;;;;5053985;28;19943;-80
2021/10/27 11:25:59;;;;;;;;;;;15.60;95.30;;;;;;5055490;28;20634;-78
2021/10/27 11:37:19;;;;;;;;;;;15.60;95.30;;;;;;5055897;28;19947;-79
2021/10/27 11:39:45;;;;;;;;;;;15.50;95.50;;;;;;5055616;28;19919;-74
2021/10/27 11:45:05;;;;;;;;;;;15.50;95.50;;;;;;5055011;28;20035;-75
2021/10/27 11:47:35;;;;;;;;;;;15.50;95.50;;;;;;5055209;28;19959;-75
2021/10/27 11:50:00;;;;;;;;;;;15.60;95.60;;;;;;5051932;28;20375;-77
2021/10/27 11:52:36;;;;;;;;;;;15.60;95.50;;;;;;5054669;28;19925;-76
2021/10/27 11:55:04;;;;;;;;;;;15.60;95.60;;;;;;5053605;28;19921;-76
2021/10/27 11:57:30;;;;;;;;;;;15.50;95.50;;;;;;5055496;28;19920;-76
2021/10/27 11:59:56;;;;;;;;;;;15.50;95.50;;;;;;5054161;28;19917;-75
2021/10/27 12:02:23;;;;;;;;;;;15.50;95.60;;;;;;5059151;28;19935;-74
2021/10/27 12:04:48;;;;;;;;;;;15.50;95.60;;;;;;5053932;28;20265;-75
2021/10/27 12:07:34;;;;;;;;;;;15.50;95.60;;;;;;5054205;28;19916;-77
2021/10/27 12:12:44;;;;;;;;;;;15.50;95.70;;;;;;5056893;28;19921;-75
2021/10/27 12:15:30;;;;;;;;;;;15.50;95.70;;;;;;5054296;28;20450;-77
2021/10/27 12:18:05;;;;;;;;;;;15.50;95.70;;;;;;5038760;28;20371;-76
2021/10/27 12:20:33;;;;;;;;;;;15.50;95.70;;;;;;5059420;28;19924;-76
2021/10/27 12:22:58;;;;;;;;;;;15.50;95.70;;;;;;5024596;28;20277;-72
2021/10/27 12:25:25;;;;;;;;;;;15.50;95.70;;;;;;5054963;28;21491;-72
2021/10/27 12:27:50;;;;;;;;;;;15.50;95.80;;;;;;5059849;28;19908;-75
2021/10/27 12:30:17;;;;;;;;;;;15.50;95.80;;;;;;5058468;28;20307;-75
2021/10/27 12:32:57;;;;;;;;;;;15.50;95.80;;;;;;5056941;28;22350;-75
2021/10/27 12:35:25;;;;;;;;;;;15.60;95.70;;;;;;5058695;28;19928;-76
2021/10/27 12:37:55;;;;;;;;;;;15.60;96.00;;;;;;5026089;28;20391;-76
2021/10/27 12:42:57;;;;;;;;;;;15.60;95.80;;;;;;5058837;28;20510;-76
2021/10/27 12:45:40;;;;;;;;;;;15.60;95.70;;;;;;5043754;28;20125;-76
2021/10/27 12:48:13;;;;;;;;;;;15.60;95.70;;;;;;5057946;28;19927;-75
2021/10/27 12:50:52;;;;;;;;;;;15.70;95.70;;;;;;5024872;28;19942;-75
2021/10/27 12:53:28;;;;;;;;;;;15.70;95.70;;;;;;5057057;28;19920;-72
2021/10/27 12:56:02;;;;;;;;;;;15.70;95.70;;;;;;5057787;28;19924;-73
2021/10/27 12:58:31;;;;;;;;;;;15.70;95.70;;;;;;5058305;28;20525;-74
2021/10/27 13:01:15;;;;;;;;;;;15.70;95.60;;;;;;5059527;28;19912;-77
2021/10/27 13:04:07;;;;;;;;;;;15.70;95.60;;;;;;5059263;28;20743;-76
2021/10/27 13:09:52;;;;;;;;;;;15.80;95.50;;;;;;5058710;28;19970;-76
2021/10/27 13:20:16;;;;;;;;;;;16.00;95.20;;;;;;5057111;28;19961;-77
2021/10/27 13:22:49;;;;;;;;;;;16.00;95.30;;;;;;5037874;28;19920;-78
2021/10/27 13:30:54;;;;;;;;;;;16.00;95.10;;;;;;5057304;28;19986;-76
2021/10/27 13:33:21;;;;;;;;;;;16.00;95.10;;;;;;5038791;28;19912;-75
2021/10/27 13:35:47;;;;;;;;;;;16.00;95.10;;;;;;5024367;28;19923;-76
2021/10/27 13:38:13;;;;;;;;;;;16.00;95.10;;;;;;5057969;28;19917;-74
2021/10/27 13:40:44;;;;;;;;;;;15.90;95.10;;;;;;5054386;28;20015;-75
2021/10/27 13:43:22;;;;;;;;;;;15.90;95.20;;;;;;5057525;28;19956;-75
2021/10/27 13:45:58;;;;;;;;;;;16.00;95.20;;;;;;5055728;28;19974;-75
2021/10/27 13:48:51;;;;;;;;;;;15.90;95.30;;;;;;5057512;28;20251;-75
2021/10/27 14:07:48;;;;;;;;;;;16.00;95.20;;;;;;5058703;28;19927;-75
2021/10/27 14:10:18;;;;;;;;;;;16.00;95.10;;;;;;5056212;28;19919;-75
2021/10/27 14:15:26;;;;;;;;;;;16.00;95.10;;;;;;5056653;28;19920;-76
2021/10/27 14:20:39;;;;;;;;;;;16.00;95.00;;;;;;5056786;28;20263;-76
2021/10/27 14:38:53;;;;;;;;;;;15.90;95.10;;;;;;5054481;28;20401;-76
2021/10/27 15:20:36;;;;;;;;;;;15.30;95.80;;;;;;5052939;28;20601;-75
2021/10/27 15:23:15;;;;;;;;;;;15.30;96.00;;;;;;5057616;28;19966;-75
2021/10/27 15:26:02;;;;;;;;;;;15.30;95.90;;;;;;5053940;28;20008;-77
2021/10/27 15:28:48;;;;;;;;;;;15.20;96.00;;;;;;5053372;28;19916;-76
2021/10/27 15:31:35;;;;;;;;;;;15.10;96.00;;;;;;5055373;28;19913;-76
2021/10/27 15:42:14;;;;;;;;;;;14.90;96.30;;;;;;5054457;28;19944;-75
2021/10/27 15:44:56;;;;;;;;;;;14.90;96.40;;;;;;5054793;28;19941;-75
2021/10/27 15:52:50;;;;;;;;;;;14.80;96.60;;;;;;5057356;28;20007;-75
2021/10/27 15:55:16;;;;;;;;;;;14.80;96.60;;;;;;5058872;28;20361;-75
2021/10/27 15:57:42;;;;;;;;;;;14.80;96.60;;;;;;5058782;28;20491;-75
2021/10/27 16:00:08;;;;;;;;;;;14.80;96.60;;;;;;5062899;28;19948;-75
2021/10/27 16:02:33;;;;;;;;;;;14.80;96.60;;;;;;5061533;28;19963;-72
2021/10/27 16:05:00;;;;;;;;;;;14.80;96.60;;;;;;5061098;28;20404;-76
2021/10/27 16:07:26;;;;;;;;;;;14.80;96.60;;;;;;5060231;28;19913;-75
2021/10/27 16:09:58;;;;;;;;;;;14.70;96.60;;;;;;5060335;28;19956;-73
2021/10/27 16:12:24;;;;;;;;;;;14.70;96.70;;;;;;5057182;28;19995;-75
2021/10/27 16:14:50;;;;;;;;;;;14.70;96.70;;;;;;5039974;28;19952;-75
2021/10/27 16:17:15;;;;;;;;;;;14.70;96.70;;;;;;5059661;28;20562;-75
2021/10/27 16:19:41;;;;;;;;;;;14.60;96.80;;;;;;5058359;28;19977;-75
2021/10/27 16:22:08;;;;;;;;;;;14.60;96.80;;;;;;5058700;28;19916;-75
2021/10/27 16:24:33;;;;;;;;;;;14.60;96.80;;;;;;5058350;28;19917;-74
2021/10/27 16:26:58;;;;;;;;;;;14.60;96.80;;;;;;5058972;28;19968;-74
2021/10/27 16:29:25;;;;;;;;;;;14.60;96.80;;;;;;5056866;28;19920;-74
2021/10/27 16:31:50;;;;;;;;;;;14.60;96.90;;;;;;5058677;28;19962;-74
2021/10/27 16:34:16;;;;;;;;;;;14.60;96.90;;;;;;5058134;28;19917;-74
2021/10/27 16:36:42;;;;;;;;;;;14.60;96.90;;;;;;5056867;28;20276;-74
2021/10/27 16:39:08;;;;;;;;;;;14.60;96.80;;;;;;5058653;28;19934;-74
2021/10/27 16:41:35;;;;;;;;;;;14.60;96.90;;;;;;5058769;28;20406;-75
2021/10/27 16:44:01;;;;;;;;;;;14.60;96.80;;;;;;5058846;28;19917;-74
2021/10/27 16:46:27;;;;;;;;;;;14.50;96.80;;;;;;5055765;28;19923;-74
2021/10/27 16:48:53;;;;;;;;;;;14.50;96.70;;;;;;5059434;28;19939;-74
2021/10/27 16:51:19;;;;;;;;;;;14.50;96.70;;;;;;5053568;28;19917;-74
2021/10/27 16:53:46;;;;;;;;;;;14.50;96.70;;;;;;5058556;28;19919;-75
2021/10/27 16:56:11;;;;;;;;;;;14.50;96.70;;;;;;5059071;28;19921;-75
2021/10/27 16:58:37;;;;;;;;;;;14.50;96.70;;;;;;5058072;28;20101;-73
2021/10/27 17:01:02;;;;;;;;;;;14.50;96.70;;;;;;5056714;28;19923;-74
2021/10/27 17:03:29;;;;;;;;;;;14.40;96.70;;;;;;5057141;28;20015;-74
2021/10/27 17:05:56;;;;;;;;;;;14.40;96.70;;;;;;5059103;28;20393;-75
2021/10/27 17:08:24;;;;;;;;;;;14.30;96.70;;;;;;5057561;28;19916;-74
2021/10/27 17:10:50;;;;;;;;;;;14.30;96.80;;;;;;5039001;28;19920;-74
2021/10/27 17:13:16;;;;;;;;;;;14.30;96.80;;;;;;5059558;28;20015;-73
2021/10/27 17:15:42;;;;;;;;;;;14.30;96.80;;;;;;5053834;28;19924;-75
2021/10/27 17:18:08;;;;;;;;;;;14.20;96.90;;;;;;5053514;28;20391;-76
2021/10/27 17:20:35;;;;;;;;;;;14.20;97.00;;;;;;5057939;28;19913;-76
2021/10/27 17:23:01;;;;;;;;;;;14.10;97.10;;;;;;5055869;28;20453;-76
2021/10/27 17:25:27;;;;;;;;;;;14.10;97.10;;;;;;5057975;28;19916;-76
2021/10/27 17:27:53;;;;;;;;;;;14.10;97.10;;;;;;5057276;28;19958;-76
2021/10/27 17:30:19;;;;;;;;;;;14.00;97.20;;;;;;5057856;28;19916;-76
2021/10/27 17:32:46;;;;;;;;;;;14.00;97.20;;;;;;5054575;28;19972;-76
2021/10/27 17:35:14;;;;;;;;;;;14.00;97.20;;;;;;5055316;28;19912;-76
2021/10/27 17:37:39;;;;;;;;;;;13.90;97.30;;;;;;5055225;28;19994;-76
2021/10/27 17:40:12;;;;;;;;;;;13.90;97.30;;;;;;5057231;28;20293;-76
2021/10/27 17:42:42;;;;;;;;;;;13.90;97.30;;;;;;5057179;28;19982;-76
2021/10/27 17:45:07;;;;;;;;;;;13.80;97.20;;;;;;5056607;28;19922;-76
2021/10/27 17:47:40;;;;;;;;;;;13.80;97.30;;;;;;5058386;28;19913;-76
2021/10/27 17:50:23;;;;;;;;;;;13.70;97.40;;;;;;5039444;28;19924;-78
2021/10/27 17:57:27;;;;;;;;;;;13.70;97.50;;;;;;5053471;28;19952;-76
2021/10/27 18:00:53;;;;;;;;;;;13.50;97.60;;;;;;5056648;28;19916;-76
2021/10/27 18:03:19;;;;;;;;;;;13.40;97.70;;;;;;5055661;28;19912;-77
2021/10/27 18:05:44;;;;;;;;;;;13.40;97.70;;;;;;5056548;28;20374;-77
2021/10/27 18:08:14;;;;;;;;;;;13.30;97.70;;;;;;5055379;28;20375;-76
2021/10/27 18:10:42;;;;;;;;;;;13.20;97.70;;;;;;5023925;28;19917;-77
2021/10/27 18:13:14;;;;;;;;;;;13.10;97.80;;;;;;5056468;28;19969;-77
2021/10/27 18:15:40;;;;;;;;;;;13.10;97.90;;;;;;5053320;28;19924;-76
2021/10/27 18:18:14;;;;;;;;;;;13.00;98.00;;;;;;5024790;28;20001;-76
2021/10/27 18:20:43;;;;;;;;;;;13.00;98.10;;;;;;5054401;28;20455;-76